Date,TemperatureHighF,TemperatureAvgF,TemperatureLowF,DewpointHighF,DewpointAvgF,DewpointLowF,HumidityHigh,HumidityAvg,HumidityLow,PressureMaxIn,PressureMinIn,WindSpeedMaxMPH,WindSpeedAvgMPH,GustSpeedMaxMPH,PrecipitationSumIn
2014-1-1,48.8,34.3,25.2,34.1,27.1,23.0,92,76,49,30.06,29.82,0,-999,0,0.00
2014-1-2,47.3,34.7,19.9,47.6,32.3,0.0,102,90,75,29.82,29.36,0,-999,0,0.00
2014-1-5,48.8,43.5,39.4,47.6,43.3,39.4,103,99,83,29.82,29.41,0,-999,0,0.00
2014-1-6,48.4,24.1,3.8,48.8,16.1,-6.7,102,71,51,29.83,29.37,0,-999,0,0.00
2014-1-7,24.6,11.9,0.6,5.6,-2.5,-8.4,81,53,32,30.07,29.82,0,-999,0,0.00
2014-1-8,46.3,25.2,10.1,24.9,14.2,4.7,84,65,35,30.20,30.06,0,-999,0,0.00
2014-1-9,49.4,33.8,21.3,30.2,22.0,-99.9,91,65,35,30.19,30.10,0,-999,0,0.00
2014-1-10,47.2,41.8,35.2,48.5,42.6,31.0,104,60,77,30.14,29.77,0,-999,0,0.00
2014-1-11,54.3,49.3,42.3,55.3,47.0,33.7,104,28,58,29.77,29.33,0,-999,0,0.00
2014-1-12,54.3,42.1,31.1,33.6,30.3,26.9,92,64,35,29.89,29.54,0,-999,0,0.00
2014-1-13,54.7,39.4,28.7,41.3,34.4,28.1,98,83,53,29.86,29.63,0,-999,0,0.00
2014-1-14,52.1,42.8,29.9,43.6,36.1,27.1,103,80,43,29.69,29.50,0,-999,0,0.00
2014-1-15,41.4,33.2,26.4,34.5,26.1,0.0,98,77,48,29.67,29.58,0,-999,0,0.00
2014-1-16,42.7,30.4,21.0,22.6,18.7,13.3,81,63,34,29.69,29.57,0,-999,0,0.00
2014-1-17,51.1,34.0,22.4,29.8,22.6,16.2,91,66,33,29.64,29.48,0,-999,0,0.00
2014-1-18,36.8,27.0,19.6,21.0,15.6,8.9,74,62,48,29.74,29.58,0,-999,0,0.00
2014-1-19,46.4,35.8,27.8,29.3,23.3,18.5,76,61,39,29.70,29.56,0,-999,0,0.00
2014-1-20,61.3,45.1,28.8,32.4,22.3,0.0,91,43,21,29.63,29.54,0,-999,0,0.00
2014-1-21,46.5,31.7,18.5,32.5,23.5,-99.9,86,75,49,29.55,29.31,0,-999,0,0.00
2014-1-22,30.6,20.7,12.0,12.5,7.2,0.0,78,57,31,29.70,29.54,0,-999,0,0.00
2014-1-23,31.1,21.6,10.9,11.6,6.7,-5.8,63,52,36,30.06,29.71,0,-999,0,0.00
2014-1-24,28.6,14.9,4.0,5.2,-0.2,-5.9,75,52,27,30.19,29.82,0,-999,0,0.00
2014-1-25,40.6,26.6,9.6,27.0,14.1,1.5,86,61,34,29.81,29.36,0,-999,0,0.00
2014-1-26,52.7,37.7,26.1,24.4,17.1,0.0,78,46,20,29.59,29.47,0,-999,0,0.00
2014-1-27,53.1,39.2,25.1,37.1,26.3,-99.9,82,61,42,29.76,29.52,0,-999,0,0.00
2014-1-28,25.0,21.2,18.1,20.5,12.6,0.0,93,70,42,29.88,29.74,0,-999,0,0.00
2014-1-29,29.1,18.5,10.4,15.4,9.3,0.0,85,68,41,29.95,29.76,0,-999,0,0.00
2014-1-30,40.6,21.4,4.6,23.2,12.3,0.0,86,69,45,29.97,29.83,0,-999,0,0.00
2014-1-31,54.2,31.9,16.3,29.2,21.0,13.2,88,67,32,29.90,29.80,0,-999,0,0.00
2014-2-1,58.2,39.3,24.5,32.9,25.9,21.6,88,63,31,29.91,29.80,0,-999,0,0.00
2014-2-2,63.9,45.5,28.1,52.1,39.6,27.2,98,81,55,29.83,29.70,0,-999,0,0.00
2014-2-3,57.3,50.1,38.6,57.5,46.8,0.0,104,88,64,29.93,29.56,0,-999,0,0.00
2014-2-4,41.8,37.8,34.9,38.3,35.2,-99.9,103,91,82,30.03,29.75,0,-999,0,0.00
2014-2-5,58.4,43.3,31.5,52.2,38.7,25.6,104,70,60,29.84,29.54,0,-999,0,0.00
2014-2-6,38.5,30.6,25.1,28.9,24.4,21.1,85,77,66,29.99,29.82,0,-999,0,0.00
2014-2-7,46.9,35.1,25.6,32.1,26.8,-99.9,92,73,51,30.01,29.89,0,-999,0,0.00
2014-2-8,51.1,38.7,30.6,40.1,30.8,-99.9,93,74,54,29.93,29.79,0,-999,0,0.00
2014-2-9,54.0,40.2,28.5,40.0,33.6,27.6,99,79,51,29.86,29.67,0,-999,0,0.00
2014-2-10,38.6,35.2,32.3,35.6,33.0,0.0,102,91,79,29.88,29.70,0,-999,0,0.00
2014-2-11,33.5,31.4,29.4,33.6,30.1,0.0,103,95,87,29.98,29.86,0,-999,0,0.00
2014-2-12,30.4,25.8,23.0,31.0,22.8,0.0,102,88,75,30.00,29.49,0,-999,0,0.00
2014-2-13,34.8,31.3,28.3,32.5,29.6,24.4,102,93,72,29.49,29.29,0,-999,0,0.00
2014-2-14,53.6,41.8,31.7,36.9,30.7,24.6,82,65,41,29.50,29.36,0,-999,0,0.00
2014-2-15,40.4,33.6,28.5,35.8,23.9,0.0,96,68,45,29.76,29.26,0,-999,0,0.00
2014-2-16,51.8,39.4,28.1,38.9,27.5,-99.9,91,64,45,29.84,29.69,0,-999,0,0.00
2014-2-17,48.9,38.5,28.6,35.4,30.6,26.5,94,74,55,29.99,29.84,0,-999,0,0.00
2014-2-18,62.9,46.3,31.9,36.3,28.9,20.5,101,57,20,29.93,29.79,0,-999,0,0.00
2014-2-19,67.7,51.9,41.0,58.1,44.8,0.0,104,78,44,29.83,29.66,0,-999,0,0.00
2014-2-20,68.8,54.7,43.7,57.6,47.3,0.0,97,77,60,29.89,29.65,0,-999,0,0.00
2014-2-21,62.8,51.5,35.2,56.9,39.1,21.3,104,66,25,29.78,29.54,0,-999,0,0.00
2014-2-22,63.8,47.4,35.0,31.3,25.4,18.8,77,45,17,29.91,29.76,0,-999,0,0.00
2014-2-23,67.8,48.0,31.7,37.7,31.1,25.4,90,58,22,29.83,29.62,0,-999,0,0.00
2014-2-24,53.8,45.2,32.9,35.2,28.2,0.0,75,53,29,29.84,29.66,0,-999,0,0.00
2014-2-25,56.3,42.9,31.0,32.8,26.9,23.0,89,55,33,29.81,29.63,0,-999,0,0.00
2014-2-26,45.7,37.0,28.1,27.3,22.5,17.2,70,56,36,29.64,29.47,0,-999,0,0.00
2014-2-27,46.8,34.1,26.0,18.0,6.9,-3.2,65,34,17,29.65,29.49,0,-999,0,0.00
2014-2-28,46.0,33.1,20.4,21.7,16.4,12.2,77,52,30,29.94,29.64,0,-999,0,0.00
2014-3-1,58.8,41.9,30.9,34.1,27.2,0.0,83,57,36,30.00,29.88,0,-999,0,0.00
2014-3-2,69.0,50.8,31.0,49.1,40.7,28.7,92,70,47,29.94,29.64,0,-999,0,0.00
2014-3-3,57.4,44.8,30.6,50.2,42.2,0.0,103,91,67,29.86,29.49,0,-999,0,0.00
2014-3-4,42.2,32.7,24.9,32.2,27.1,0.0,102,81,60,29.94,29.80,0,-999,0,0.00
2014-3-5,57.2,40.7,28.6,38.9,30.6,21.8,89,68,46,29.92,29.77,0,-999,0,0.00
2014-3-6,39.5,35.3,31.9,34.9,25.6,18.5,101,69,51,29.98,29.76,0,-999,0,0.00
2014-3-7,50.9,39.5,33.8,47.4,38.9,34.2,104,98,80,29.75,29.64,0,-999,0,0.00
2014-3-8,65.1,48.5,31.7,44.6,36.2,32.5,104,68,32,29.82,29.72,0,-999,0,0.00
2014-3-9,63.7,53.6,45.2,40.0,33.1,22.9,68,47,26,29.84,29.76,0,-999,0,0.00
2014-3-10,69.5,54.3,43.2,45.2,32.4,0.0,71,46,20,29.81,29.60,0,-999,0,0.00
2014-3-11,75.7,55.0,34.1,41.1,35.4,0.0,94,54,21,29.63,29.45,0,-999,0,0.00
2014-3-12,68.9,51.1,32.8,58.0,44.4,24.3,102,78,52,29.48,29.09,0,-999,0,0.00
2014-3-13,42.0,33.0,27.2,23.9,14.1,-99.9,70,47,26,29.93,29.43,0,-999,0,0.00
2014-3-14,61.0,42.3,23.7,26.8,21.4,14.6,78,48,22,29.97,29.79,0,-999,0,0.00
2014-3-15,65.9,53.7,42.7,38.8,31.9,0.0,68,44,23,29.82,29.73,0,-999,0,0.00
2014-3-16,50.7,42.4,38.3,42.2,38.2,32.2,102,86,49,29.80,29.47,0,-999,0,0.00
2014-3-17,38.4,32.8,30.1,38.6,33.5,30.9,103,102,100,29.61,29.46,0,-999,0,0.00
2014-3-18,48.4,37.3,30.0,44.5,36.7,30.7,103,98,84,29.84,29.57,0,-999,0,0.00
2014-3-19,53.8,44.3,38.9,48.3,42.6,39.5,103,94,66,29.86,29.68,0,-999,0,0.00
2014-3-20,58.6,50.5,37.2,42.0,29.0,17.3,73,47,20,29.82,29.70,0,-999,0,0.00
2014-3-21,66.2,47.0,29.2,33.6,27.8,24.9,86,52,22,29.90,29.76,0,-999,0,0.00
2014-3-22,68.4,54.9,43.2,42.2,36.8,28.3,81,51,35,29.80,29.71,0,-999,0,0.00
2014-3-23,52.8,43.9,39.0,49.7,38.7,27.1,103,83,57,29.84,29.69,0,-999,0,0.00
2014-3-24,55.6,40.3,27.8,34.6,25.3,0.0,85,58,24,29.92,29.72,0,-999,0,0.00
2014-3-25,42.3,35.4,26.4,38.8,28.1,14.4,98,75,53,29.74,29.53,0,-999,0,0.00
2014-3-26,44.5,32.3,22.8,20.9,15.3,0.0,70,51,29,29.99,29.72,0,-999,0,0.00
2014-3-27,58.5,42.1,26.0,30.8,23.0,0.0,80,50,23,30.09,29.93,0,-999,0,0.00
2014-3-28,55.5,52.0,45.9,52.7,47.5,29.0,99,85,49,29.96,29.83,0,-999,0,0.00
2014-3-29,59.9,51.7,39.9,58.9,50.8,0.0,103,97,75,29.85,29.38,0,-999,0,0.00
2014-3-30,52.6,43.2,33.8,36.8,30.2,-99.9,90,63,41,29.80,29.50,0,-999,0,0.00
2014-3-31,73.4,53.1,35.2,37.3,29.2,25.5,73,43,17,29.91,29.79,0,-999,0,0.00
2014-4-1,77.6,58.0,41.1,45.7,39.2,0.0,86,55,24,29.90,29.78,0,-999,0,0.00
2014-4-2,79.0,60.3,39.4,49.2,41.8,31.8,91,56,27,29.89,29.78,0,-999,0,0.00
2014-4-3,81.5,63.4,48.9,59.5,47.2,37.8,85,57,25,29.86,29.65,0,-999,0,0.00
2014-4-4,70.6,60.4,48.1,58.0,50.8,44.4,99,72,47,29.70,29.54,0,-999,0,0.00
2014-4-5,65.5,54.2,44.7,47.2,38.5,34.7,73,56,36,29.81,29.62,0,-999,0,0.00
2014-4-6,60.4,50.4,43.5,40.5,37.1,32.0,79,60,44,29.90,29.76,0,-999,0,0.00
2014-4-7,56.4,47.8,42.1,57.0,47.9,0.0,104,95,73,29.80,29.40,0,-999,0,0.00
2014-4-8,56.4,50.2,41.7,56.8,42.9,0.0,103,77,54,29.51,29.37,0,-999,0,0.00
2014-4-9,60.3,49.1,39.1,45.2,37.3,0.0,96,68,33,29.87,29.50,0,-999,0,0.00
2014-4-10,71.2,52.5,33.0,41.3,35.9,0.0,95,58,24,30.01,29.86,0,-999,0,0.00
2014-4-11,75.9,59.1,42.1,44.7,40.5,37.2,83,53,30,29.96,29.80,0,-999,0,0.00
2014-4-12,78.3,61.2,44.3,51.5,45.0,40.9,91,59,29,29.98,29.87,0,-999,0,0.00
2014-4-13,79.4,65.1,51.1,58.5,51.5,0.0,92,64,41,29.93,29.82,0,-999,0,0.00
2014-4-14,64.6,60.7,58.4,62.2,56.1,0.0,103,86,68,29.84,29.56,0,-999,0,0.00
2014-4-15,58.8,48.4,33.2,59.8,44.5,-99.9,104,89,66,29.74,29.41,0,-999,0,0.00
2014-4-16,55.7,41.7,28.1,33.1,27.6,22.0,82,59,33,30.10,29.71,0,-999,0,0.00
2014-4-17,60.6,46.1,32.7,35.0,31.1,-99.9,89,59,33,30.21,30.09,0,-999,0,0.00
2014-4-18,53.5,46.5,41.4,45.6,37.7,31.8,100,72,55,30.15,29.93,0,-999,0,0.00
2014-4-19,56.4,49.1,45.6,52.8,47.5,0.0,104,93,70,29.98,29.84,0,-999,0,0.00
2014-4-20,68.6,55.2,45.3,47.7,42.7,0.0,104,66,32,30.03,29.93,0,-999,0,0.00
2014-4-21,77.3,57.2,37.5,51.3,43.0,35.7,95,63,31,29.96,29.71,0,-999,0,0.00
2014-4-22,70.0,57.9,46.6,60.7,51.2,-99.9,102,80,55,29.73,29.52,0,-999,0,0.00
2014-4-23,71.4,59.6,50.0,53.1,39.0,29.3,78,49,22,29.69,29.56,0,-999,0,0.00